sensor_id;sensor_type;location;lat;lon;timestamp;P1;durP1;ratioP1;P2;durP2;ratioP2
19919;SDS011;10122;50.074;19.920;2023-11-19T00:00:52;21.05;;;13.43;;
19919;SDS011;10122;50.074;19.920;2023-11-19T00:03:18;20.02;;;13.43;;
19919;SDS011;10122;50.074;19.920;2023-11-19T00:05:45;22.85;;;13.68;;
19919;SDS011;10122;50.074;19.920;2023-11-19T00:08:11;24.75;;;14.05;;
19919;SDS011;10122;50.074;19.920;2023-11-19T00:10:37;19.92;;;12.95;;
19919;SDS011;10122;50.074;19.920;2023-11-19T00:13:03;21.48;;;13.70;;
19919;SDS011;10122;50.074;19.920;2023-11-19T00:15:29;21.15;;;12.77;;
19919;SDS011;10122;50.074;19.920;2023-11-19T00:17:55;19.88;;;12.88;;
19919;SDS011;10122;50.074;19.920;2023-11-19T00:20:21;25.67;;;13.90;;
19919;SDS011;10122;50.074;19.920;2023-11-19T00:22:47;24.48;;;14.52;;
19919;SDS011;10122;50.074;19.920;2023-11-19T00:25:16;25.00;;;13.75;;
19919;SDS011;10122;50.074;19.920;2023-11-19T00:27:42;25.70;;;14.15;;
19919;SDS011;10122;50.074;19.920;2023-11-19T00:30:09;20.92;;;14.07;;
19919;SDS011;10122;50.074;19.920;2023-11-19T00:32:36;28.77;;;15.57;;
19919;SDS011;10122;50.074;19.920;2023-11-19T00:35:04;27.73;;;15.27;;
19919;SDS011;10122;50.074;19.920;2023-11-19T00:37:31;23.05;;;13.88;;
19919;SDS011;10122;50.074;19.920;2023-11-19T00:39:57;23.17;;;14.15;;
19919;SDS011;10122;50.074;19.920;2023-11-19T00:42:23;22.58;;;13.32;;
19919;SDS011;10122;50.074;19.920;2023-11-19T00:44:50;26.02;;;13.82;;
19919;SDS011;10122;50.074;19.920;2023-11-19T00:47:16;21.98;;;13.55;;
19919;SDS011;10122;50.074;19.920;2023-11-19T00:49:42;25.80;;;14.13;;
19919;SDS011;10122;50.074;19.920;2023-11-19T00:52:08;25.15;;;13.85;;
19919;SDS011;10122;50.074;19.920;2023-11-19T00:54:34;28.00;;;13.90;;
19919;SDS011;10122;50.074;19.920;2023-11-19T00:57:00;25.17;;;13.82;;
19919;SDS011;10122;50.074;19.920;2023-11-19T00:59:26;23.70;;;14.13;;
19919;SDS011;10122;50.074;19.920;2023-11-19T01:01:53;23.75;;;14.18;;
19919;SDS011;10122;50.074;19.920;2023-11-19T01:04:21;23.48;;;13.88;;
19919;SDS011;10122;50.074;19.920;2023-11-19T01:06:49;24.73;;;13.68;;
19919;SDS011;10122;50.074;19.920;2023-11-19T01:09:15;24.55;;;14.77;;
19919;SDS011;10122;50.074;19.920;2023-11-19T01:11:42;27.00;;;13.90;;
19919;SDS011;10122;50.074;19.920;2023-11-19T01:14:08;22.67;;;15.15;;
19919;SDS011;10122;50.074;19.920;2023-11-19T01:16:34;22.40;;;13.70;;
19919;SDS011;10122;50.074;19.920;2023-11-19T01:19:00;25.00;;;14.27;;
19919;SDS011;10122;50.074;19.920;2023-11-19T01:21:29;25.30;;;14.20;;
19919;SDS011;10122;50.074;19.920;2023-11-19T01:23:55;23.88;;;13.63;;
19919;SDS011;10122;50.074;19.920;2023-11-19T01:26:22;21.10;;;13.68;;
19919;SDS011;10122;50.074;19.920;2023-11-19T01:28:48;25.42;;;13.63;;
19919;SDS011;10122;50.074;19.920;2023-11-19T01:31:17;24.48;;;14.13;;
19919;SDS011;10122;50.074;19.920;2023-11-19T01:33:43;27.83;;;14.13;;
19919;SDS011;10122;50.074;19.920;2023-11-19T01:36:09;19.40;;;12.85;;
19919;SDS011;10122;50.074;19.920;2023-11-19T01:38:38;24.38;;;14.23;;
19919;SDS011;10122;50.074;19.920;2023-11-19T01:41:04;22.23;;;13.98;;
19919;SDS011;10122;50.074;19.920;2023-11-19T01:43:31;21.27;;;14.00;;
19919;SDS011;10122;50.074;19.920;2023-11-19T01:45:58;29.75;;;14.35;;
19919;SDS011;10122;50.074;19.920;2023-11-19T01:48:24;22.15;;;13.57;;
19919;SDS011;10122;50.074;19.920;2023-11-19T01:50:50;20.77;;;13.35;;
19919;SDS011;10122;50.074;19.920;2023-11-19T01:53:17;29.77;;;14.77;;
19919;SDS011;10122;50.074;19.920;2023-11-19T01:55:43;23.95;;;13.75;;
19919;SDS011;10122;50.074;19.920;2023-11-19T01:58:09;23.77;;;14.57;;
19919;SDS011;10122;50.074;19.920;2023-11-19T02:00:37;25.17;;;14.15;;
19919;SDS011;10122;50.074;19.920;2023-11-19T02:03:04;27.38;;;14.20;;
19919;SDS011;10122;50.074;19.920;2023-11-19T02:05:32;21.60;;;12.55;;
19919;SDS011;10122;50.074;19.920;2023-11-19T02:07:58;25.70;;;14.10;;
19919;SDS011;10122;50.074;19.920;2023-11-19T02:10:24;24.77;;;13.68;;
19919;SDS011;10122;50.074;19.920;2023-11-19T02:12:50;26.25;;;14.38;;
19919;SDS011;10122;50.074;19.920;2023-11-19T02:15:16;26.35;;;13.70;;
19919;SDS011;10122;50.074;19.920;2023-11-19T02:17:44;28.77;;;14.77;;
19919;SDS011;10122;50.074;19.920;2023-11-19T02:20:10;18.98;;;12.32;;
19919;SDS011;10122;50.074;19.920;2023-11-19T02:22:37;24.05;;;14.35;;
19919;SDS011;10122;50.074;19.920;2023-11-19T02:25:04;21.40;;;13.50;;
19919;SDS011;10122;50.074;19.920;2023-11-19T02:27:51;22.08;;;13.45;;
19919;SDS011;10122;50.074;19.920;2023-11-19T02:30:21;24.85;;;14.23;;
19919;SDS011;10122;50.074;19.920;2023-11-19T02:32:54;20.83;;;13.25;;
19919;SDS011;10122;50.074;19.920;2023-11-19T02:35:27;26.55;;;13.55;;
19919;SDS011;10122;50.074;19.920;2023-11-19T02:37:56;20.05;;;12.23;;
19919;SDS011;10122;50.074;19.920;2023-11-19T02:40:22;21.25;;;12.98;;
19919;SDS011;10122;50.074;19.920;2023-11-19T02:42:49;19.58;;;12.82;;
19919;SDS011;10122;50.074;19.920;2023-11-19T02:45:15;19.00;;;12.05;;
19919;SDS011;10122;50.074;19.920;2023-11-19T02:47:42;22.10;;;13.45;;
19919;SDS011;10122;50.074;19.920;2023-11-19T02:50:09;21.98;;;13.15;;
19919;SDS011;10122;50.074;19.920;2023-11-19T02:52:42;20.45;;;12.88;;
19919;SDS011;10122;50.074;19.920;2023-11-19T02:55:10;22.63;;;13.68;;
19919;SDS011;10122;50.074;19.920;2023-11-19T02:57:40;31.50;;;13.80;;
19919;SDS011;10122;50.074;19.920;2023-11-19T03:00:19;22.33;;;13.35;;
19919;SDS011;10122;50.074;19.920;2023-11-19T03:02:53;23.35;;;13.95;;
19919;SDS011;10122;50.074;19.920;2023-11-19T03:05:30;25.50;;;14.55;;
19919;SDS011;10122;50.074;19.920;2023-11-19T03:07:56;23.13;;;14.30;;
19919;SDS011;10122;50.074;19.920;2023-11-19T03:10:23;26.00;;;15.30;;
19919;SDS011;10122;50.074;19.920;2023-11-19T03:12:49;29.05;;;15.02;;
19919;SDS011;10122;50.074;19.920;2023-11-19T03:15:15;25.50;;;13.85;;
19919;SDS011;10122;50.074;19.920;2023-11-19T03:17:41;27.65;;;14.43;;
19919;SDS011;10122;50.074;19.920;2023-11-19T03:20:08;27.35;;;15.18;;
19919;SDS011;10122;50.074;19.920;2023-11-19T03:22:38;29.17;;;15.27;;
19919;SDS011;10122;50.074;19.920;2023-11-19T03:25:04;29.38;;;15.88;;
19919;SDS011;10122;50.074;19.920;2023-11-19T03:27:33;27.05;;;14.45;;
19919;SDS011;10122;50.074;19.920;2023-11-19T03:30:00;29.98;;;15.05;;
19919;SDS011;10122;50.074;19.920;2023-11-19T03:32:26;26.73;;;14.98;;
19919;SDS011;10122;50.074;19.920;2023-11-19T03:34:52;30.88;;;15.27;;
19919;SDS011;10122;50.074;19.920;2023-11-19T03:37:19;27.30;;;15.07;;
19919;SDS011;10122;50.074;19.920;2023-11-19T03:39:45;24.17;;;15.38;;
19919;SDS011;10122;50.074;19.920;2023-11-19T03:42:11;30.80;;;15.40;;
19919;SDS011;10122;50.074;19.920;2023-11-19T03:44:38;28.42;;;15.48;;
19919;SDS011;10122;50.074;19.920;2023-11-19T03:47:04;27.58;;;15.00;;
19919;SDS011;10122;50.074;19.920;2023-11-19T03:49:31;24.02;;;13.73;;
19919;SDS011;10122;50.074;19.920;2023-11-19T03:51:57;22.67;;;12.63;;
19919;SDS011;10122;50.074;19.920;2023-11-19T03:54:23;29.77;;;15.73;;
19919;SDS011;10122;50.074;19.920;2023-11-19T03:56:49;28.58;;;16.00;;
19919;SDS011;10122;50.074;19.920;2023-11-19T03:59:15;22.13;;;13.82;;
19919;SDS011;10122;50.074;19.920;2023-11-19T04:01:41;28.20;;;15.07;;
19919;SDS011;10122;50.074;19.920;2023-11-19T04:04:07;25.48;;;14.80;;
19919;SDS011;10122;50.074;19.920;2023-11-19T04:06:33;28.05;;;15.07;;
19919;SDS011;10122;50.074;19.920;2023-11-19T04:08:59;21.52;;;13.93;;
19919;SDS011;10122;50.074;19.920;2023-11-19T04:11:25;25.48;;;13.35;;
19919;SDS011;10122;50.074;19.920;2023-11-19T04:13:51;21.02;;;11.73;;
19919;SDS011;10122;50.074;19.920;2023-11-19T04:16:17;27.10;;;15.50;;
19919;SDS011;10122;50.074;19.920;2023-11-19T04:18:43;25.27;;;13.73;;
19919;SDS011;10122;50.074;19.920;2023-11-19T04:21:10;22.58;;;13.95;;
19919;SDS011;10122;50.074;19.920;2023-11-19T04:23:36;27.67;;;13.80;;
19919;SDS011;10122;50.074;19.920;2023-11-19T04:26:05;19.85;;;12.80;;
19919;SDS011;10122;50.074;19.920;2023-11-19T04:28:31;24.27;;;13.30;;
19919;SDS011;10122;50.074;19.920;2023-11-19T04:30:57;33.67;;;15.95;;
19919;SDS011;10122;50.074;19.920;2023-11-19T04:33:23;25.27;;;14.68;;
19919;SDS011;10122;50.074;19.920;2023-11-19T04:35:50;33.50;;;15.25;;
19919;SDS011;10122;50.074;19.920;2023-11-19T04:38:16;29.73;;;16.17;;
19919;SDS011;10122;50.074;19.920;2023-11-19T04:40:42;31.33;;;15.57;;
19919;SDS011;10122;50.074;19.920;2023-11-19T04:43:08;28.25;;;14.50;;
19919;SDS011;10122;50.074;19.920;2023-11-19T04:45:35;21.13;;;12.38;;
19919;SDS011;10122;50.074;19.920;2023-11-19T04:48:01;28.77;;;14.48;;
19919;SDS011;10122;50.074;19.920;2023-11-19T04:50:28;22.58;;;14.23;;
19919;SDS011;10122;50.074;19.920;2023-11-19T04:52:54;30.58;;;16.10;;
19919;SDS011;10122;50.074;19.920;2023-11-19T04:55:20;32.70;;;16.85;;
19919;SDS011;10122;50.074;19.920;2023-11-19T04:57:47;28.08;;;14.82;;
19919;SDS011;10122;50.074;19.920;2023-11-19T05:00:13;34.45;;;16.65;;
19919;SDS011;10122;50.074;19.920;2023-11-19T05:02:39;30.52;;;14.55;;
19919;SDS011;10122;50.074;19.920;2023-11-19T05:05:05;35.35;;;16.20;;
19919;SDS011;10122;50.074;19.920;2023-11-19T05:07:32;27.02;;;14.00;;
19919;SDS011;10122;50.074;19.920;2023-11-19T05:09:58;29.08;;;15.20;;
19919;SDS011;10122;50.074;19.920;2023-11-19T05:12:25;39.67;;;16.67;;
19919;SDS011;10122;50.074;19.920;2023-11-19T05:14:51;34.88;;;17.45;;
19919;SDS011;10122;50.074;19.920;2023-11-19T05:17:17;33.13;;;16.33;;
19919;SDS011;10122;50.074;19.920;2023-11-19T05:19:44;33.58;;;16.60;;
19919;SDS011;10122;50.074;19.920;2023-11-19T05:22:10;30.38;;;16.48;;
19919;SDS011;10122;50.074;19.920;2023-11-19T05:24:36;27.73;;;15.68;;
19919;SDS011;10122;50.074;19.920;2023-11-19T05:27:02;32.60;;;17.38;;
19919;SDS011;10122;50.074;19.920;2023-11-19T05:29:28;32.08;;;16.95;;
19919;SDS011;10122;50.074;19.920;2023-11-19T05:31:54;29.13;;;15.88;;
19919;SDS011;10122;50.074;19.920;2023-11-19T05:34:20;24.60;;;13.55;;
19919;SDS011;10122;50.074;19.920;2023-11-19T05:36:46;30.30;;;16.13;;
19919;SDS011;10122;50.074;19.920;2023-11-19T05:39:12;25.30;;;13.93;;
19919;SDS011;10122;50.074;19.920;2023-11-19T05:41:39;29.92;;;15.55;;
19919;SDS011;10122;50.074;19.920;2023-11-19T05:44:05;25.58;;;15.25;;
19919;SDS011;10122;50.074;19.920;2023-11-19T05:46:31;23.67;;;14.43;;
19919;SDS011;10122;50.074;19.920;2023-11-19T05:48:57;26.02;;;14.10;;
19919;SDS011;10122;50.074;19.920;2023-11-19T05:51:23;23.50;;;12.55;;
19919;SDS011;10122;50.074;19.920;2023-11-19T05:53:49;23.77;;;14.25;;
19919;SDS011;10122;50.074;19.920;2023-11-19T05:56:16;26.40;;;14.93;;
19919;SDS011;10122;50.074;19.920;2023-11-19T05:58:46;26.83;;;14.43;;
19919;SDS011;10122;50.074;19.920;2023-11-19T06:01:14;25.00;;;13.48;;
19919;SDS011;10122;50.074;19.920;2023-11-19T06:03:40;30.98;;;16.10;;
19919;SDS011;10122;50.074;19.920;2023-11-19T06:06:08;37.45;;;17.20;;
19919;SDS011;10122;50.074;19.920;2023-11-19T06:08:34;35.35;;;17.92;;
19919;SDS011;10122;50.074;19.920;2023-11-19T06:11:00;27.92;;;15.13;;
19919;SDS011;10122;50.074;19.920;2023-11-19T06:13:26;37.85;;;18.25;;
19919;SDS011;10122;50.074;19.920;2023-11-19T06:15:52;34.85;;;18.15;;
19919;SDS011;10122;50.074;19.920;2023-11-19T06:18:18;36.22;;;17.77;;
19919;SDS011;10122;50.074;19.920;2023-11-19T06:20:45;28.73;;;15.50;;
19919;SDS011;10122;50.074;19.920;2023-11-19T06:23:11;35.40;;;18.13;;
19919;SDS011;10122;50.074;19.920;2023-11-19T06:25:38;29.77;;;16.50;;
19919;SDS011;10122;50.074;19.920;2023-11-19T06:28:04;34.42;;;17.05;;
19919;SDS011;10122;50.074;19.920;2023-11-19T06:30:30;27.65;;;15.65;;
19919;SDS011;10122;50.074;19.920;2023-11-19T06:32:57;31.70;;;16.45;;
19919;SDS011;10122;50.074;19.920;2023-11-19T06:35:23;34.58;;;16.88;;
19919;SDS011;10122;50.074;19.920;2023-11-19T06:37:50;29.42;;;15.07;;
19919;SDS011;10122;50.074;19.920;2023-11-19T06:40:16;31.30;;;16.23;;
19919;SDS011;10122;50.074;19.920;2023-11-19T06:42:42;43.83;;;26.23;;
19919;SDS011;10122;50.074;19.920;2023-11-19T06:45:08;21.90;;;13.80;;
19919;SDS011;10122;50.074;19.920;2023-11-19T06:47:34;28.42;;;15.13;;
19919;SDS011;10122;50.074;19.920;2023-11-19T06:50:00;37.42;;;16.48;;
19919;SDS011;10122;50.074;19.920;2023-11-19T06:52:29;39.13;;;16.48;;
19919;SDS011;10122;50.074;19.920;2023-11-19T06:54:55;38.72;;;17.55;;
19919;SDS011;10122;50.074;19.920;2023-11-19T06:57:22;29.10;;;15.93;;
19919;SDS011;10122;50.074;19.920;2023-11-19T06:59:48;26.70;;;14.88;;
19919;SDS011;10122;50.074;19.920;2023-11-19T07:02:14;28.15;;;15.35;;
19919;SDS011;10122;50.074;19.920;2023-11-19T07:04:40;28.35;;;15.45;;
19919;SDS011;10122;50.074;19.920;2023-11-19T07:07:07;36.88;;;17.40;;
19919;SDS011;10122;50.074;19.920;2023-11-19T07:09:33;22.00;;;13.88;;
19919;SDS011;10122;50.074;19.920;2023-11-19T07:11:59;34.25;;;17.33;;
19919;SDS011;10122;50.074;19.920;2023-11-19T07:14:26;19.58;;;12.68;;
19919;SDS011;10122;50.074;19.920;2023-11-19T07:16:53;11.40;;;10.05;;
19919;SDS011;10122;50.074;19.920;2023-11-19T07:19:20;29.73;;;14.55;;
19919;SDS011;10122;50.074;19.920;2023-11-19T07:21:46;27.55;;;15.45;;
19919;SDS011;10122;50.074;19.920;2023-11-19T07:24:13;19.17;;;13.32;;
19919;SDS011;10122;50.074;19.920;2023-11-19T07:26:45;24.17;;;14.90;;
19919;SDS011;10122;50.074;19.920;2023-11-19T07:29:12;12.52;;;9.57;;
19919;SDS011;10122;50.074;19.920;2023-11-19T07:31:38;25.60;;;14.52;;
19919;SDS011;10122;50.074;19.920;2023-11-19T07:34:04;29.17;;;15.52;;
19919;SDS011;10122;50.074;19.920;2023-11-19T07:36:31;20.88;;;12.55;;
19919;SDS011;10122;50.074;19.920;2023-11-19T07:38:58;30.20;;;14.50;;
19919;SDS011;10122;50.074;19.920;2023-11-19T07:41:24;13.30;;;10.40;;
19919;SDS011;10122;50.074;19.920;2023-11-19T07:43:51;25.35;;;13.75;;
19919;SDS011;10122;50.074;19.920;2023-11-19T07:46:17;26.85;;;14.68;;
19919;SDS011;10122;50.074;19.920;2023-11-19T07:48:44;22.33;;;13.88;;
19919;SDS011;10122;50.074;19.920;2023-11-19T07:51:12;22.83;;;13.38;;
19919;SDS011;10122;50.074;19.920;2023-11-19T07:53:39;21.42;;;12.65;;
19919;SDS011;10122;50.074;19.920;2023-11-19T07:56:05;28.92;;;14.60;;
19919;SDS011;10122;50.074;19.920;2023-11-19T07:58:32;19.48;;;13.32;;
19919;SDS011;10122;50.074;19.920;2023-11-19T08:00:58;23.20;;;14.15;;
19919;SDS011;10122;50.074;19.920;2023-11-19T08:03:24;26.35;;;13.85;;
19919;SDS011;10122;50.074;19.920;2023-11-19T08:05:50;26.55;;;12.15;;
19919;SDS011;10122;50.074;19.920;2023-11-19T08:08:16;17.55;;;11.93;;
19919;SDS011;10122;50.074;19.920;2023-11-19T08:10:42;20.55;;;11.50;;
19919;SDS011;10122;50.074;19.920;2023-11-19T08:13:09;20.20;;;13.00;;
19919;SDS011;10122;50.074;19.920;2023-11-19T08:15:35;22.70;;;13.45;;
19919;SDS011;10122;50.074;19.920;2023-11-19T08:18:01;25.23;;;13.38;;
19919;SDS011;10122;50.074;19.920;2023-11-19T08:20:27;16.50;;;12.00;;
19919;SDS011;10122;50.074;19.920;2023-11-19T08:22:53;20.92;;;12.68;;
19919;SDS011;10122;50.074;19.920;2023-11-19T08:25:19;25.02;;;13.88;;
19919;SDS011;10122;50.074;19.920;2023-11-19T08:27:45;18.30;;;11.63;;
19919;SDS011;10122;50.074;19.920;2023-11-19T08:30:12;17.35;;;11.57;;
19919;SDS011;10122;50.074;19.920;2023-11-19T08:32:38;18.23;;;11.73;;
19919;SDS011;10122;50.074;19.920;2023-11-19T08:35:04;17.77;;;12.45;;
19919;SDS011;10122;50.074;19.920;2023-11-19T08:37:30;22.45;;;13.30;;
19919;SDS011;10122;50.074;19.920;2023-11-19T08:39:56;17.00;;;11.70;;
19919;SDS011;10122;50.074;19.920;2023-11-19T08:42:22;16.20;;;11.38;;
19919;SDS011;10122;50.074;19.920;2023-11-19T08:44:49;23.42;;;12.73;;
19919;SDS011;10122;50.074;19.920;2023-11-19T08:47:19;20.70;;;12.30;;
19919;SDS011;10122;50.074;19.920;2023-11-19T08:49:47;18.40;;;10.77;;
19919;SDS011;10122;50.074;19.920;2023-11-19T08:52:13;19.23;;;12.10;;
19919;SDS011;10122;50.074;19.920;2023-11-19T08:54:42;18.20;;;12.10;;
19919;SDS011;10122;50.074;19.920;2023-11-19T08:57:08;18.48;;;12.30;;
19919;SDS011;10122;50.074;19.920;2023-11-19T08:59:34;21.80;;;13.70;;
19919;SDS011;10122;50.074;19.920;2023-11-19T09:02:02;24.05;;;13.82;;
19919;SDS011;10122;50.074;19.920;2023-11-19T09:04:28;20.88;;;12.40;;
19919;SDS011;10122;50.074;19.920;2023-11-19T09:06:54;18.00;;;11.85;;
19919;SDS011;10122;50.074;19.920;2023-11-19T09:09:20;21.17;;;12.57;;
19919;SDS011;10122;50.074;19.920;2023-11-19T09:11:46;18.23;;;12.30;;
19919;SDS011;10122;50.074;19.920;2023-11-19T09:14:12;21.02;;;12.20;;
19919;SDS011;10122;50.074;19.920;2023-11-19T09:16:38;20.33;;;12.57;;
19919;SDS011;10122;50.074;19.920;2023-11-19T09:19:04;18.88;;;10.98;;
19919;SDS011;10122;50.074;19.920;2023-11-19T09:21:30;18.48;;;11.93;;
19919;SDS011;10122;50.074;19.920;2023-11-19T09:23:57;11.77;;;9.80;;
19919;SDS011;10122;50.074;19.920;2023-11-19T09:26:23;14.07;;;9.93;;
19919;SDS011;10122;50.074;19.920;2023-11-19T09:28:49;11.10;;;9.65;;
19919;SDS011;10122;50.074;19.920;2023-11-19T09:31:16;16.00;;;10.40;;
19919;SDS011;10122;50.074;19.920;2023-11-19T09:33:42;12.05;;;9.38;;
19919;SDS011;10122;50.074;19.920;2023-11-19T09:36:08;14.98;;;10.30;;
19919;SDS011;10122;50.074;19.920;2023-11-19T09:38:36;18.77;;;11.88;;
19919;SDS011;10122;50.074;19.920;2023-11-19T09:41:06;17.75;;;11.18;;
19919;SDS011;10122;50.074;19.920;2023-11-19T09:43:37;13.43;;;10.63;;
19919;SDS011;10122;50.074;19.920;2023-11-19T09:46:04;17.77;;;11.70;;
19919;SDS011;10122;50.074;19.920;2023-11-19T09:48:34;16.40;;;11.50;;
19919;SDS011;10122;50.074;19.920;2023-11-19T09:51:02;17.83;;;11.43;;
19919;SDS011;10122;50.074;19.920;2023-11-19T09:53:28;10.45;;;9.38;;
19919;SDS011;10122;50.074;19.920;2023-11-19T09:55:55;15.68;;;10.98;;
19919;SDS011;10122;50.074;19.920;2023-11-19T09:58:21;14.05;;;10.40;;
19919;SDS011;10122;50.074;19.920;2023-11-19T10:00:47;13.93;;;9.48;;
19919;SDS011;10122;50.074;19.920;2023-11-19T10:03:13;15.95;;;11.65;;
19919;SDS011;10122;50.074;19.920;2023-11-19T10:05:39;18.42;;;11.75;;
19919;SDS011;10122;50.074;19.920;2023-11-19T10:08:06;19.80;;;11.57;;
19919;SDS011;10122;50.074;19.920;2023-11-19T10:10:33;10.18;;;9.20;;
19919;SDS011;10122;50.074;19.920;2023-11-19T10:12:59;10.05;;;9.05;;
19919;SDS011;10122;50.074;19.920;2023-11-19T10:15:26;13.73;;;10.45;;
19919;SDS011;10122;50.074;19.920;2023-11-19T10:17:55;15.20;;;11.82;;
19919;SDS011;10122;50.074;19.920;2023-11-19T10:20:21;17.15;;;11.70;;
19919;SDS011;10122;50.074;19.920;2023-11-19T10:22:47;15.68;;;10.50;;
19919;SDS011;10122;50.074;19.920;2023-11-19T10:25:26;13.05;;;10.82;;
19919;SDS011;10122;50.074;19.920;2023-11-19T10:27:52;17.02;;;10.88;;
19919;SDS011;10122;50.074;19.920;2023-11-19T10:30:22;16.90;;;10.50;;
19919;SDS011;10122;50.074;19.920;2023-11-19T10:33:04;13.00;;;9.90;;
19919;SDS011;10122;50.074;19.920;2023-11-19T10:35:31;18.52;;;11.60;;
19919;SDS011;10122;50.074;19.920;2023-11-19T10:37:59;13.93;;;10.82;;
19919;SDS011;10122;50.074;19.920;2023-11-19T10:40:37;14.32;;;11.15;;
19919;SDS011;10122;50.074;19.920;2023-11-19T10:43:04;11.30;;;8.95;;
19919;SDS011;10122;50.074;19.920;2023-11-19T10:45:32;16.08;;;11.55;;
19919;SDS011;10122;50.074;19.920;2023-11-19T10:47:59;14.57;;;10.90;;
19919;SDS011;10122;50.074;19.920;2023-11-19T10:50:26;12.82;;;10.00;;
19919;SDS011;10122;50.074;19.920;2023-11-19T10:52:54;15.40;;;10.35;;
19919;SDS011;10122;50.074;19.920;2023-11-19T10:55:25;12.48;;;10.30;;
19919;SDS011;10122;50.074;19.920;2023-11-19T10:57:52;14.50;;;11.35;;
19919;SDS011;10122;50.074;19.920;2023-11-19T11:00:18;12.30;;;10.88;;
19919;SDS011;10122;50.074;19.920;2023-11-19T11:02:45;13.98;;;10.82;;
19919;SDS011;10122;50.074;19.920;2023-11-19T11:05:14;10.30;;;9.30;;
19919;SDS011;10122;50.074;19.920;2023-11-19T11:07:41;10.68;;;8.95;;
19919;SDS011;10122;50.074;19.920;2023-11-19T11:10:09;12.15;;;10.07;;
19919;SDS011;10122;50.074;19.920;2023-11-19T11:12:36;15.13;;;10.88;;
19919;SDS011;10122;50.074;19.920;2023-11-19T11:15:04;12.85;;;10.27;;
19919;SDS011;10122;50.074;19.920;2023-11-19T11:17:31;9.13;;;8.23;;
19919;SDS011;10122;50.074;19.920;2023-11-19T11:19:58;16.30;;;11.48;;
19919;SDS011;10122;50.074;19.920;2023-11-19T11:22:32;10.75;;;9.65;;
19919;SDS011;10122;50.074;19.920;2023-11-19T11:38:04;11.95;;;10.23;;
19919;SDS011;10122;50.074;19.920;2023-11-19T11:40:31;12.63;;;10.30;;
19919;SDS011;10122;50.074;19.920;2023-11-19T11:42:58;15.30;;;11.98;;
19919;SDS011;10122;50.074;19.920;2023-11-19T11:45:39;18.52;;;11.98;;
19919;SDS011;10122;50.074;19.920;2023-11-19T11:48:11;12.07;;;10.50;;
19919;SDS011;10122;50.074;19.920;2023-11-19T11:50:50;14.95;;;11.70;;
19919;SDS011;10122;50.074;19.920;2023-11-19T11:53:17;12.35;;;9.82;;
19919;SDS011;10122;50.074;19.920;2023-11-19T11:58:34;12.95;;;10.88;;
19919;SDS011;10122;50.074;19.920;2023-11-19T12:01:03;15.65;;;11.70;;
19919;SDS011;10122;50.074;19.920;2023-11-19T12:03:32;17.10;;;11.55;;
19919;SDS011;10122;50.074;19.920;2023-11-19T12:05:59;9.45;;;8.38;;
19919;SDS011;10122;50.074;19.920;2023-11-19T12:08:26;9.38;;;8.50;;
19919;SDS011;10122;50.074;19.920;2023-11-19T12:10:53;10.35;;;9.35;;
19919;SDS011;10122;50.074;19.920;2023-11-19T12:13:23;13.93;;;10.55;;
19919;SDS011;10122;50.074;19.920;2023-11-19T12:18:28;9.60;;;8.70;;
19919;SDS011;10122;50.074;19.920;2023-11-19T12:20:55;12.45;;;10.30;;
19919;SDS011;10122;50.074;19.920;2023-11-19T12:23:22;11.93;;;9.82;;
19919;SDS011;10122;50.074;19.920;2023-11-19T12:25:48;11.38;;;9.73;;
19919;SDS011;10122;50.074;19.920;2023-11-19T12:28:15;10.63;;;9.05;;
19919;SDS011;10122;50.074;19.920;2023-11-19T12:30:42;13.00;;;10.30;;
19919;SDS011;10122;50.074;19.920;2023-11-19T12:33:09;12.30;;;10.45;;
19919;SDS011;10122;50.074;19.920;2023-11-19T12:35:44;16.90;;;10.50;;
19919;SDS011;10122;50.074;19.920;2023-11-19T12:38:25;14.27;;;9.68;;
19919;SDS011;10122;50.074;19.920;2023-11-19T12:41:07;12.00;;;10.00;;
19919;SDS011;10122;50.074;19.920;2023-11-19T12:43:33;10.90;;;9.57;;
19919;SDS011;10122;50.074;19.920;2023-11-19T12:46:01;11.20;;;9.02;;
19919;SDS011;10122;50.074;19.920;2023-11-19T12:48:27;10.52;;;9.15;;
19919;SDS011;10122;50.074;19.920;2023-11-19T12:50:56;12.27;;;9.90;;
19919;SDS011;10122;50.074;19.920;2023-11-19T12:53:23;10.50;;;9.48;;
19919;SDS011;10122;50.074;19.920;2023-11-19T12:55:50;11.48;;;10.05;;
19919;SDS011;10122;50.074;19.920;2023-11-19T12:58:32;9.52;;;8.65;;
19919;SDS011;10122;50.074;19.920;2023-11-19T13:01:03;10.25;;;8.98;;
19919;SDS011;10122;50.074;19.920;2023-11-19T13:03:33;12.55;;;9.45;;
19919;SDS011;10122;50.074;19.920;2023-11-19T13:06:03;14.80;;;10.57;;
19919;SDS011;10122;50.074;19.920;2023-11-19T13:08:39;12.50;;;10.07;;
19919;SDS011;10122;50.074;19.920;2023-11-19T13:11:06;10.40;;;9.52;;
19919;SDS011;10122;50.074;19.920;2023-11-19T13:16:20;10.57;;;9.48;;
19919;SDS011;10122;50.074;19.920;2023-11-19T13:18:46;9.65;;;8.70;;
19919;SDS011;10122;50.074;19.920;2023-11-19T13:21:12;9.93;;;9.07;;
19919;SDS011;10122;50.074;19.920;2023-11-19T13:23:38;12.38;;;10.27;;
19919;SDS011;10122;50.074;19.920;2023-11-19T13:26:04;12.18;;;9.90;;
19919;SDS011;10122;50.074;19.920;2023-11-19T13:28:30;9.38;;;8.48;;
19919;SDS011;10122;50.074;19.920;2023-11-19T13:30:56;10.27;;;8.85;;
19919;SDS011;10122;50.074;19.920;2023-11-19T13:33:23;10.40;;;8.73;;
19919;SDS011;10122;50.074;19.920;2023-11-19T13:35:49;9.60;;;8.70;;
19919;SDS011;10122;50.074;19.920;2023-11-19T13:38:15;10.02;;;9.02;;
19919;SDS011;10122;50.074;19.920;2023-11-19T13:40:41;9.80;;;8.80;;
19919;SDS011;10122;50.074;19.920;2023-11-19T13:43:07;10.63;;;9.52;;
19919;SDS011;10122;50.074;19.920;2023-11-19T13:45:33;10.95;;;9.85;;
19919;SDS011;10122;50.074;19.920;2023-11-19T13:47:59;12.73;;;9.88;;
19919;SDS011;10122;50.074;19.920;2023-11-19T13:50:25;11.25;;;9.50;;
19919;SDS011;10122;50.074;19.920;2023-11-19T13:52:53;10.52;;;9.32;;
19919;SDS011;10122;50.074;19.920;2023-11-19T13:55:19;12.30;;;9.70;;
19919;SDS011;10122;50.074;19.920;2023-11-19T13:57:47;8.48;;;7.78;;
19919;SDS011;10122;50.074;19.920;2023-11-19T14:00:14;12.88;;;9.57;;
19919;SDS011;10122;50.074;19.920;2023-11-19T14:02:48;9.93;;;8.85;;
19919;SDS011;10122;50.074;19.920;2023-11-19T14:05:15;10.00;;;9.00;;
19919;SDS011;10122;50.074;19.920;2023-11-19T14:07:44;10.43;;;9.32;;
19919;SDS011;10122;50.074;19.920;2023-11-19T14:10:14;9.82;;;8.93;;
19919;SDS011;10122;50.074;19.920;2023-11-19T14:12:40;10.93;;;9.60;;
19919;SDS011;10122;50.074;19.920;2023-11-19T14:15:07;11.27;;;9.35;;
19919;SDS011;10122;50.074;19.920;2023-11-19T14:17:42;9.63;;;8.65;;
19919;SDS011;10122;50.074;19.920;2023-11-19T14:20:08;11.52;;;8.77;;
19919;SDS011;10122;50.074;19.920;2023-11-19T14:22:44;9.60;;;8.73;;
19919;SDS011;10122;50.074;19.920;2023-11-19T14:25:11;10.05;;;9.05;;
19919;SDS011;10122;50.074;19.920;2023-11-19T14:27:38;10.98;;;9.48;;
19919;SDS011;10122;50.074;19.920;2023-11-19T14:30:07;10.85;;;9.75;;
19919;SDS011;10122;50.074;19.920;2023-11-19T14:32:37;11.57;;;10.18;;